Time;durP1;ratioP1;P1;durP2;ratioP2;P2;SDS_P1;SDS_P2;PMS_P1;PMS_P2;Temp;Humidity;BMP_temperature;BMP_pressure;BME280_temperature;BME280_humidity;BME280_pressure;Samples;Min_cycle;Max_cycle;Signal;HPM_P1;HPM_P2
2021/10/31 00:00:18;;;;;;;8.40;4.80;;;;;;;10.45;51.57;96790.36;115644;1198;30935;-85
2021/10/31 00:03:08;;;;;;;9.70;5.20;;;;;;;10.47;51.66;96783.98;115654;1190;26396;-80
2021/10/31 00:05:37;;;;;;;;;;;;;;;10.48;51.66;96788.38;115613;1197;33761;-84
2021/10/31 00:08:08;;;;;;;9.20;5.10;;;;;;;10.47;51.81;96792.25;115625;1197;32671;-80
2021/10/31 00:10:39;;;;;;;9.50;5.00;;;;;;;10.50;51.81;96794.14;115669;1190;28428;-83
2021/10/31 00:13:12;;;;;;;9.00;5.00;;;;;;;10.49;51.85;96795.99;115649;1198;27629;-84
2021/10/31 00:15:43;;;;;;;7.60;4.80;;;;;;;10.48;51.85;96797.43;115673;1197;28943;-84
2021/10/31 00:18:13;;;;;;;10.40;5.50;;;;;;;10.47;52.02;96794.79;115674;1190;27733;-84
2021/10/31 00:20:42;;;;;;;;;;;;;;;10.46;51.99;96793.53;115660;1190;27226;-84
2021/10/31 00:23:13;;;;;;;9.90;5.40;;;;;;;10.43;52.06;96793.87;115642;1197;31970;-84
2021/10/31 00:25:44;;;;;;;10.80;4.80;;;;;;;10.39;52.19;96793.55;115663;1197;28364;-84
2021/10/31 00:28:15;;;;;;;7.90;4.90;;;;;;;10.37;52.31;96797.48;115683;1197;27810;-84
2021/10/31 00:30:46;;;;;;;7.10;4.40;;;;;;;10.36;52.36;96804.22;115644;1197;25690;-84
2021/10/31 00:33:16;;;;;;;9.70;4.50;;;;;;;10.36;52.53;96801.95;115676;1198;25121;-84
2021/10/31 00:35:46;;;;;;;;;;;;;;;10.35;52.67;96793.67;115696;1197;26725;-84
2021/10/31 00:38:17;;;;;;;11.20;5.00;;;;;;;10.33;52.68;96797.50;115681;1198;29091;-84
2021/10/31 00:40:46;;;;;;;;;;;;;;;10.33;52.89;96797.55;115656;1197;28525;-84
2021/10/31 00:43:17;;;;;;;10.10;5.00;;;;;;;10.28;53.08;96793.08;115672;1196;29298;-83
2021/10/31 00:45:49;;;;;;;6.90;4.50;;;;;;;10.25;53.32;96790.85;115708;1196;26503;-84
2021/10/31 00:48:19;;;;;;;9.20;5.30;;;;;;;10.21;53.40;96785.83;115717;1197;26709;-84
2021/10/31 00:50:53;;;;;;;8.10;5.40;;;;;;;10.22;53.65;96780.36;115680;1197;27711;-83
2021/10/31 00:53:24;;;;;;;9.80;5.30;;;;;;;10.26;53.63;96788.78;115639;1196;28519;-84
2021/10/31 00:55:55;;;;;;;10.40;5.00;;;;;;;10.31;53.57;96786.98;115661;1197;27742;-84
2021/10/31 00:58:24;;;;;;;;;;;;;;;10.36;53.46;96780.16;115657;1196;26725;-84
2021/10/31 01:00:55;;;;;;;9.70;5.10;;;;;;;10.39;53.38;96780.14;115600;1198;31574;-86
2021/10/31 01:03:26;;;;;;;8.20;5.20;;;;;;;10.42;53.29;96780.13;115639;1197;33646;-83
2021/10/31 01:06:12;;;;;;;9.00;5.20;;;;;;;10.49;53.31;96782.91;116034;1197;22430;-83
2021/10/31 01:08:50;;;;;;;8.60;5.60;;;;;;;10.52;53.21;96775.58;115893;1197;24641;-84
2021/10/31 01:11:34;;;;;;;8.60;4.80;;;;;;;10.51;53.09;96767.15;115953;1198;22427;-84
2021/10/31 01:14:25;;;;;;;10.60;5.00;;;;;;;10.50;53.24;96762.70;115975;1197;22430;-83
2021/10/31 01:17:10;;;;;;;6.70;4.30;;;;;;;10.49;53.31;96760.80;115995;1197;25048;-83
2021/10/31 01:20:09;;;;;;;8.30;5.10;;;;;;;10.52;53.21;96747.90;115976;1197;23108;-84
2021/10/31 01:22:56;;;;;;;9.20;4.90;;;;;;;10.54;53.06;96749.73;115982;1197;22430;-84
2021/10/31 01:25:53;;;;;;;11.20;5.20;;;;;;;10.58;52.99;96741.03;115971;1197;22448;-84
2021/10/31 01:28:36;;;;;;;9.60;5.70;;;;;;;10.71;52.78;96739.67;115985;1197;22641;-84
2021/10/31 01:31:17;;;;;;;10.00;4.50;;;;;;;10.77;52.52;96743.66;115974;1198;22429;-84
2021/10/31 01:33:57;;;;;;;7.20;4.80;;;;;;;10.78;52.45;96741.91;115956;1197;22429;-84
2021/10/31 01:36:38;;;;;;;9.90;5.50;;;;;;;10.77;52.38;96726.86;115964;1198;22438;-83
2021/10/31 01:39:19;;;;;;;9.10;5.60;;;;;;;10.77;52.45;96723.63;115888;1197;27279;-84
2021/10/31 01:42:00;;;;;;;8.80;4.90;;;;;;;10.77;52.48;96726.06;116012;1197;22418;-84
2021/10/31 01:44:35;;;;;;;;;;;;;;;10.75;52.63;96720.88;116031;1197;22405;-83
2021/10/31 01:47:11;;;;;;;8.10;5.40;;;;;;;10.72;52.71;96731.35;115449;1197;28083;-84
2021/10/31 01:49:50;;;;;;;10.60;6.20;;;;;;;10.70;52.76;96723.52;115817;1190;25215;-83
2021/10/31 01:52:26;;;;;;;8.00;5.30;;;;;;;10.70;52.88;96731.09;115549;1199;26345;-82
2021/10/31 01:55:00;;;;;;;9.00;5.30;;;;;;;10.69;52.87;96731.02;115594;1198;35698;-84
2021/10/31 01:57:33;;;;;;;9.40;5.80;;;;;;;10.67;52.88;96730.52;115835;1192;27573;-83
2021/10/31 02:00:07;;;;;;;11.40;5.80;;;;;;;10.66;52.92;96706.66;115953;1198;22814;-83
2021/10/31 02:02:42;;;;;;;13.70;5.70;;;;;;;10.67;53.00;96711.21;115945;1198;22426;-84
2021/10/31 02:05:15;;;;;;;7.50;5.40;;;;;;;10.64;53.07;96701.01;115981;1198;22412;-84
2021/10/31 02:07:51;;;;;;;11.40;6.00;;;;;;;10.64;53.10;96704.92;115951;1198;22454;-83
2021/10/31 02:10:23;;;;;;;10.20;6.20;;;;;;;10.66;53.14;96689.54;115962;1198;23506;-84
2021/10/31 02:12:55;;;;;;;9.40;5.50;;;;;;;10.63;53.27;96691.63;115972;1198;22467;-84
2021/10/31 02:15:27;;;;;;;9.00;6.10;;;;;;;10.57;53.22;96700.00;115940;1198;25111;-85
2021/10/31 02:18:00;;;;;;;10.00;5.80;;;;;;;10.53;53.20;96694.55;115955;1198;25678;-82
2021/10/31 02:20:34;;;;;;;11.70;6.30;;;;;;;10.60;52.94;96693.73;115987;1192;22461;-83
2021/10/31 02:23:06;;;;;;;12.70;6.20;;;;;;;10.64;52.86;96703.23;115947;1198;22537;-83
2021/10/31 02:25:37;;;;;;;9.50;5.80;;;;;;;10.67;52.57;96713.44;115941;1198;23153;-83
2021/10/31 02:28:08;;;;;;;10.20;5.90;;;;;;;10.64;52.63;96721.68;115992;1193;22437;-84
2021/10/31 02:30:39;;;;;;;9.80;5.70;;;;;;;10.57;52.71;96719.30;115925;1198;25203;-83
2021/10/31 02:33:10;;;;;;;10.30;6.10;;;;;;;10.50;52.90;96706.55;115968;1198;22437;-84
2021/10/31 02:35:41;;;;;;;11.10;6.20;;;;;;;10.44;53.18;96709.79;115970;1198;22432;-83
2021/10/31 02:38:12;;;;;;;12.40;7.30;;;;;;;10.36;53.30;96709.88;115967;1198;25082;-83
2021/10/31 02:40:43;;;;;;;10.80;6.30;;;;;;;10.28;53.50;96706.11;115940;1191;22567;-84
2021/10/31 02:43:14;;;;;;;12.10;6.40;;;;;;;10.22;53.78;96709.31;115961;1197;22447;-83
2021/10/31 02:45:45;;;;;;;10.10;6.30;;;;;;;10.18;53.92;96712.18;115965;1198;22463;-83
2021/10/31 02:48:20;;;;;;;10.20;6.40;;;;;;;10.16;54.03;96704.35;115974;1198;22432;-83
2021/10/31 02:50:58;;;;;;;10.10;5.80;;;;;;;10.12;54.18;96704.66;115984;1197;23243;-83
2021/10/31 02:53:38;;;;;;;9.90;5.80;;;;;;;10.10;54.25;96709.98;116041;1190;22853;-83
2021/10/31 02:56:21;;;;;;;10.70;6.50;;;;;;;10.10;54.29;96713.27;116035;1190;22506;-84
2021/10/31 02:58:58;;;;;;;8.70;5.70;;;;;;;10.09;54.35;96721.10;116052;1196;22435;-85
2021/10/31 03:01:31;;;;;;;9.00;6.10;;;;;;;10.09;54.41;96717.66;116034;1197;22448;-84
2021/10/31 03:04:02;;;;;;;11.70;5.90;;;;;;;10.07;54.37;96724.72;116013;1190;22423;-84
2021/10/31 03:06:33;;;;;;;10.40;6.50;;;;;;;10.04;54.34;96729.98;116020;1190;22468;-83
2021/10/31 03:09:04;;;;;;;11.10;6.30;;;;;;;10.01;54.38;96734.08;116000;1196;22430;-83
2021/10/31 03:11:35;;;;;;;8.30;5.60;;;;;;;9.97;54.50;96741.59;116045;1197;23547;-84
2021/10/31 03:14:06;;;;;;;8.90;5.70;;;;;;;9.95;54.58;96747.22;116038;1197;22434;-83
2021/10/31 03:16:38;;;;;;;8.40;5.80;;;;;;;9.91;54.60;96758.37;115991;1196;25046;-84
2021/10/31 03:19:08;;;;;;;9.10;5.90;;;;;;;9.88;54.74;96754.79;115955;1190;23781;-84
2021/10/31 03:21:37;;;;;;;;;;;;;;;9.81;54.74;96763.63;116035;1196;22425;-83
2021/10/31 03:24:08;;;;;;;10.40;5.90;;;;;;;9.82;54.79;96770.61;116026;1196;22422;-84
2021/10/31 03:26:39;;;;;;;9.40;5.60;;;;;;;9.85;54.74;96771.88;116014;1196;22436;-84
2021/10/31 03:29:08;;;;;;;;;;;;;;;9.86;54.70;96765.48;116044;1190;22484;-84
2021/10/31 03:31:39;;;;;;;9.40;5.90;;;;;;;9.87;54.56;96762.15;116009;1197;22394;-84
2021/10/31 03:34:09;;;;;;;12.10;6.40;;;;;;;9.88;54.63;96769.29;116053;1190;24045;-84
2021/10/31 03:36:40;;;;;;;9.50;5.80;;;;;;;9.91;54.62;96762.82;116017;1197;24992;-85
2021/10/31 03:39:12;;;;;;;9.40;5.60;;;;;;;9.93;54.46;96757.09;116015;1196;22430;-84
2021/10/31 03:41:45;;;;;;;8.40;5.30;;;;;;;9.99;54.43;96760.46;116006;1197;22429;-85
2021/10/31 03:44:17;;;;;;;9.90;5.90;;;;;;;10.00;54.45;96758.08;116060;1190;25267;-85
2021/10/31 03:46:48;;;;;;;11.40;6.10;;;;;;;9.91;54.59;96757.04;116004;1196;22430;-85
2021/10/31 03:49:19;;;;;;;9.10;5.60;;;;;;;9.84;54.82;96756.95;116028;1190;22437;-84
2021/10/31 03:51:50;;;;;;;9.60;5.80;;;;;;;9.80;54.93;96760.67;115992;1190;22433;-84
2021/10/31 03:54:21;;;;;;;9.70;6.00;;;;;;;9.78;55.04;96757.77;116016;1190;22434;-84
2021/10/31 03:57:00;;;;;;;8.10;5.70;;;;;;;9.74;54.92;96764.61;115976;1197;22454;-84
2021/10/31 03:59:29;;;;;;;;;;;;;;;9.71;54.92;96771.65;115994;1190;24833;-84
2021/10/31 04:01:59;;;;;;;9.80;5.80;;;;;;;9.72;55.03;96770.44;115977;1196;22433;-85
2021/10/31 04:04:31;;;;;;;10.20;6.20;;;;;;;9.72;55.01;96775.48;115986;1197;22416;-85
2021/10/31 04:07:01;;;;;;;10.20;5.80;;;;;;;9.71;55.11;96769.10;115961;1197;24007;-84
2021/10/31 04:09:32;;;;;;;10.60;6.10;;;;;;;9.72;54.97;96767.42;115998;1197;25131;-84
2021/10/31 04:12:03;;;;;;;9.70;6.30;;;;;;;9.73;55.12;96764.88;116019;1189;22439;-84
2021/10/31 04:14:34;;;;;;;10.00;6.00;;;;;;;9.70;55.25;96765.73;116035;1196;22445;-85
2021/10/31 04:17:05;;;;;;;11.40;6.30;;;;;;;9.66;55.57;96775.95;116012;1197;22464;-84
2021/10/31 04:19:36;;;;;;;10.10;5.70;;;;;;;9.64;55.34;96777.77;115949;1191;22639;-85
2021/10/31 04:22:07;;;;;;;11.10;5.90;;;;;;;9.62;55.43;96778.77;115996;1198;22545;-84
2021/10/31 04:24:38;;;;;;;17.80;6.70;;;;;;;9.62;55.69;96781.84;115986;1196;22429;-84
2021/10/31 04:27:09;;;;;;;9.40;5.70;;;;;;;9.60;55.77;96779.00;116011;1197;22937;-85
2021/10/31 04:29:40;;;;;;;9.90;6.20;;;;;;;9.58;55.86;96776.51;116042;1196;22433;-84
2021/10/31 04:32:11;;;;;;;10.70;6.60;;;;;;;9.54;56.01;96772.58;116017;1196;22454;-83
2021/10/31 04:34:42;;;;;;;8.20;5.80;;;;;;;9.49;56.19;96772.06;116031;1197;26136;-83
2021/10/31 04:37:11;;;;;;;;;;;;;;;9.48;56.09;96767.15;116027;1196;22423;-83
2021/10/31 04:39:43;;;;;;;9.50;5.70;;;;;;;9.44;56.23;96765.62;116007;1197;22463;-83
2021/10/31 04:42:14;;;;;;;12.10;6.00;;;;;;;9.36;56.39;96770.77;116013;1183;22495;-83
2021/10/31 04:44:45;;;;;;;8.90;5.90;;;;;;;9.30;56.52;96762.56;116049;1196;24609;-83
2021/10/31 04:47:16;;;;;;;9.00;5.90;;;;;;;9.26;56.70;96753.14;116026;1197;22433;-84
2021/10/31 04:49:47;;;;;;;10.50;6.20;;;;;;;9.27;56.48;96758.01;116044;1196;22436;-83
2021/10/31 04:52:18;;;;;;;9.30;5.60;;;;;;;9.33;56.33;96753.45;116011;1196;25315;-83
2021/10/31 04:54:49;;;;;;;8.40;6.00;;;;;;;9.41;56.16;96753.33;116027;1190;23172;-85
2021/10/31 04:57:20;;;;;;;11.30;6.20;;;;;;;9.44;56.06;96757.00;115972;1197;22503;-83
2021/10/31 04:59:49;;;;;;;;;;;;;;;9.45;55.92;96761.23;116040;1196;22472;-84
2021/10/31 05:02:20;;;;;;;8.40;6.10;;;;;;;9.43;56.03;96762.11;116027;1197;22417;-85
2021/10/31 05:04:49;;;;;;;;;;;;;;;9.46;55.79;96759.96;116000;1190;24084;-83
2021/10/31 05:07:20;;;;;;;10.90;5.80;;;;;;;9.50;55.65;96761.80;115995;1197;22472;-83
2021/10/31 05:09:50;;;;;;;10.50;5.80;;;;;;;9.51;55.45;96761.64;116006;1197;22430;-83
2021/10/31 05:12:25;;;;;;;9.20;5.50;;;;;;;9.54;55.30;96753.36;116046;1190;24021;-84
2021/10/31 05:14:56;;;;;;;10.90;5.80;;;;;;;9.63;54.94;96757.13;116025;1196;22423;-83
2021/10/31 05:17:27;;;;;;;8.70;5.90;;;;;;;9.71;54.74;96755.03;115959;1190;25270;-83
2021/10/31 05:19:58;;;;;;;10.50;6.20;;;;;;;9.77;54.66;96767.24;116033;1197;22526;-84
2021/10/31 05:22:29;;;;;;;9.00;5.90;;;;;;;9.75;54.66;96763.70;115998;1196;22413;-83
2021/10/31 05:24:59;;;;;;;10.30;6.00;;;;;;;9.73;54.83;96765.27;116004;1197;22426;-84
2021/10/31 05:27:30;;;;;;;9.20;5.70;;;;;;;9.71;54.95;96770.45;116046;1197;22430;-83
2021/10/31 05:30:02;;;;;;;9.20;6.10;;;;;;;9.68;55.04;96773.09;116029;1189;24090;-83
2021/10/31 05:32:34;;;;;;;9.10;6.10;;;;;;;9.64;55.13;96774.48;116012;1197;22439;-83
2021/10/31 05:35:07;;;;;;;10.80;5.90;;;;;;;9.61;55.21;96781.80;116021;1197;25186;-84
2021/10/31 05:37:41;;;;;;;11.20;6.10;;;;;;;9.60;55.15;96781.42;115999;1197;24528;-83
2021/10/31 05:40:15;;;;;;;8.70;5.30;;;;;;;9.63;55.19;96777.92;116006;1197;23213;-82
2021/10/31 05:42:46;;;;;;;11.10;5.90;;;;;;;9.61;55.13;96778.67;116004;1197;22447;-83
2021/10/31 05:45:17;;;;;;;9.30;6.00;;;;;;;9.58;55.18;96778.89;116021;1196;24040;-84
2021/10/31 05:47:48;;;;;;;9.80;5.90;;;;;;;9.73;55.27;96778.27;116018;1197;22496;-83
2021/10/31 05:50:19;;;;;;;9.70;5.90;;;;;;;10.23;55.15;96775.91;116014;1197;22439;-83
2021/10/31 05:52:51;;;;;;;8.90;5.90;;;;;;;10.84;54.64;96769.34;116000;1182;22445;-83
2021/10/31 05:55:22;;;;;;;9.80;5.90;;;;;;;11.41;53.66;96770.55;115978;1197;22419;-82
2021/10/31 05:57:53;;;;;;;8.80;5.00;;;;;;;11.97;52.53;96769.64;116006;1196;22471;-83
2021/10/31 06:00:23;;;;;;;8.30;5.50;;;;;;;12.43;51.08;96772.35;116044;1189;22420;-84
2021/10/31 06:02:54;;;;;;;8.50;5.30;;;;;;;12.76;49.71;96768.61;115938;1190;22421;-84
2021/10/31 06:05:25;;;;;;;8.40;5.50;;;;;;;13.05;48.69;96762.17;115994;1196;22419;-83
2021/10/31 06:07:56;;;;;;;7.60;4.90;;;;;;;13.23;47.48;96766.64;115974;1197;22539;-83
2021/10/31 06:10:28;;;;;;;8.10;5.00;;;;;;;13.43;46.94;96773.24;115988;1190;22464;-83
2021/10/31 06:12:59;;;;;;;8.70;5.10;;;;;;;13.81;47.52;96790.23;115979;1197;22419;-82
2021/10/31 06:15:30;;;;;;;9.70;5.80;;;;;;;14.35;47.32;96789.46;115378;1183;55630;-83
2021/10/31 06:18:01;;;;;;;8.60;5.20;;;;;;;14.54;46.67;96785.80;115686;1197;29671;-83
2021/10/31 06:20:32;;;;;;;7.80;5.60;;;;;;;14.83;46.17;96791.70;115715;1190;33079;-82
2021/10/31 06:23:02;;;;;;;7.50;5.70;;;;;;;15.02;45.63;96783.75;115639;1196;58042;-82
2021/10/31 06:25:34;;;;;;;7.90;5.00;;;;;;;15.33;45.44;96782.95;115569;1190;56448;-79
2021/10/31 06:28:05;;;;;;;8.70;5.90;;;;;;;16.03;45.14;96782.75;115515;1197;53957;-82
2021/10/31 06:30:36;;;;;;;9.00;5.40;;;;;;;16.34;42.77;96774.69;115613;1197;26599;-82
2021/10/31 06:33:06;;;;;;;7.20;4.90;;;;;;;16.24;41.54;96779.67;115625;1197;26840;-82
2021/10/31 06:35:37;;;;;;;6.80;4.40;;;;;;;16.20;40.49;96777.60;115656;1197;32356;-82
2021/10/31 06:38:08;;;;;;;8.90;5.40;;;;;;;15.98;39.83;96779.54;115619;1197;26852;-83
2021/10/31 06:40:37;;;;;;;;;;;;;;;15.75;39.93;96775.27;115610;1191;26517;-84
2021/10/31 06:43:08;;;;;;;7.70;5.10;;;;;;;15.52;40.22;96785.96;115605;1197;34598;-83
2021/10/31 06:45:39;;;;;;;8.80;5.00;;;;;;;15.49;41.45;96796.64;115616;1197;35782;-82
2021/10/31 06:48:09;;;;;;;7.90;5.30;;;;;;;16.10;41.83;96801.45;110473;1197;4000204;-82
2021/10/31 06:50:38;;;;;;;;;;;;;;;16.21;40.55;96802.05;115670;1195;27677;-84
2021/10/31 06:53:09;;;;;;;8.00;5.70;;;;;;;15.90;41.15;96800.25;115652;1197;26515;-82
2021/10/31 06:55:40;;;;;;;7.60;5.30;;;;;;;16.02;41.10;96800.74;115655;1197;25441;-82
2021/10/31 06:58:11;;;;;;;8.30;5.10;;;;;;;16.10;41.25;96793.05;115636;1192;34784;-83
2021/10/31 07:00:42;;;;;;;7.50;5.30;;;;;;;16.44;40.93;96793.82;115602;1197;29523;-83
2021/10/31 07:03:13;;;;;;;7.70;4.70;;;;;;;16.68;40.90;96803.71;115640;1197;26148;-82
2021/10/31 07:05:44;;;;;;;8.70;5.40;;;;;;;16.99;40.60;96815.34;115646;1197;26449;-82
2021/10/31 07:08:14;;;;;;;9.40;5.40;;;;;;;17.20;40.24;96815.38;115599;1197;57016;-84
2021/10/31 07:10:45;;;;;;;7.20;4.60;;;;;;;17.27;40.18;96817.20;115634;1197;54166;-82
2021/10/31 07:13:17;;;;;;;9.00;5.00;;;;;;;17.39;39.92;96809.91;115647;1196;54155;-82
2021/10/31 07:15:48;;;;;;;7.40;5.40;;;;;;;17.44;39.62;96811.08;115569;1190;64104;-83
2021/10/31 07:18:19;;;;;;;7.40;5.00;;;;;;;17.42;39.39;96810.35;115607;1197;53915;-82
2021/10/31 07:20:50;;;;;;;7.60;5.00;;;;;;;17.19;39.06;96818.84;115756;1197;31640;-83
2021/10/31 07:23:21;;;;;;;7.60;5.40;;;;;;;17.14;39.43;96819.45;115738;1197;54955;-83
2021/10/31 07:25:52;;;;;;;9.10;5.20;;;;;;;16.92;38.26;96812.86;115924;1197;36382;-83
2021/10/31 07:28:23;;;;;;;10.40;5.70;;;;;;;16.39;39.07;96811.30;115816;1197;57686;-83
2021/10/31 07:30:58;;;;;;;9.20;4.60;;;;;;;15.96;38.89;96799.47;115845;1183;28346;-82
2021/10/31 07:33:29;;;;;;;10.60;5.90;;;;;;;15.36;39.69;96793.62;116852;1197;35059;-82
2021/10/31 07:36:02;;;;;;;7.70;5.20;;;;;;;15.02;40.50;96791.86;115849;1192;27023;-82
2021/10/31 07:38:39;;;;;;;8.90;5.20;;;;;;;14.92;41.20;96799.50;115748;1189;26601;-83
2021/10/31 07:41:10;;;;;;;7.20;5.10;;;;;;;15.12;41.29;96800.70;115617;1197;31033;-82
2021/10/31 07:43:41;;;;;;;7.70;4.80;;;;;;;15.37;41.35;96807.96;115632;1197;31220;-82
2021/10/31 07:46:12;;;;;;;6.70;4.50;;;;;;;15.63;40.91;96817.21;115695;1197;28585;-83
2021/10/31 07:48:44;;;;;;;8.80;5.40;;;;;;;15.67;40.60;96823.48;115613;1197;27403;-83
2021/10/31 07:51:14;;;;;;;7.10;4.90;;;;;;;15.58;40.22;96823.58;115639;1197;33904;-83
2021/10/31 07:53:45;;;;;;;7.90;5.10;;;;;;;15.44;40.66;96819.52;115659;1197;26457;-83
2021/10/31 07:56:18;;;;;;;8.20;5.20;;;;;;;15.54;40.85;96821.04;115651;1183;30767;-83
2021/10/31 07:58:54;;;;;;;8.70;4.80;;;;;;;15.52;40.58;96822.48;115645;1196;29744;-83
2021/10/31 08:01:26;;;;;;;8.70;4.70;;;;;;;15.52;40.47;96823.57;115734;1197;26256;-82
2021/10/31 08:03:57;;;;;;;7.20;4.70;;;;;;;15.57;41.02;96821.63;115638;1197;58559;-85
2021/10/31 08:06:28;;;;;;;9.00;5.60;;;;;;;15.71;40.89;96817.92;115712;1197;50213;-85
2021/10/31 08:08:58;;;;;;;7.20;4.80;;;;;;;15.70;40.44;96812.54;116396;1167;25654;-83
2021/10/31 08:11:27;;;;;;;;;;;;;;;15.59;40.46;96814.47;115259;1198;23351;-84
2021/10/31 08:13:58;;;;;;;6.50;4.60;;;;;;;15.53;40.78;96809.67;115663;1197;25379;-83
2021/10/31 08:16:27;;;;;;;;;;;;;;;15.59;41.14;96813.55;115545;1199;23702;-84
2021/10/31 08:19:00;;;;;;;6.40;4.20;;;;;;;15.64;41.01;96812.54;115615;1198;33015;-89
2021/10/31 08:21:30;;;;;;;7.80;4.10;;;;;;;15.74;41.15;96812.88;115630;1198;32098;-84
2021/10/31 08:24:01;;;;;;;8.50;5.20;;;;;;;15.82;40.73;96810.41;115438;1198;22613;-84
2021/10/31 08:26:32;;;;;;;8.30;5.00;;;;;;;15.72;40.87;96811.51;115613;1198;25683;-85
2021/10/31 08:29:03;;;;;;;8.50;5.10;;;;;;;15.75;40.83;96814.39;115657;1198;26195;-84
2021/10/31 08:31:38;;;;;;;5.50;4.10;;;;;;;15.51;40.06;96815.45;115587;1198;24051;-84
2021/10/31 08:34:09;;;;;;;8.60;4.50;;;;;;;15.26;40.41;96811.21;115678;1198;41594;-85
2021/10/31 08:36:41;;;;;;;6.70;4.20;;;;;;;15.08;40.85;96812.11;115665;1198;25387;-86
2021/10/31 08:39:12;;;;;;;6.10;4.20;;;;;;;15.09;41.42;96811.45;115783;1198;25382;-84
2021/10/31 08:41:43;;;;;;;7.00;4.20;;;;;;;15.17;41.17;96808.59;115651;1198;24037;-84
2021/10/31 08:44:14;;;;;;;6.60;4.00;;;;;;;15.15;41.07;96809.02;115579;1198;34323;-83
2021/10/31 08:46:45;;;;;;;8.60;3.60;;;;;;;15.12;40.79;96807.86;115593;1198;25700;-84
2021/10/31 08:49:16;;;;;;;6.30;4.10;;;;;;;15.08;40.49;96801.98;115631;1198;24174;-83
2021/10/31 08:51:47;;;;;;;9.10;4.20;;;;;;;14.97;40.99;96801.43;115482;1199;25742;-84
2021/10/31 08:54:18;;;;;;;6.20;4.20;;;;;;;15.05;41.45;96796.54;115493;1198;25640;-83
2021/10/31 08:56:49;;;;;;;6.70;4.60;;;;;;;15.03;40.68;96789.25;115650;1198;30647;-83
2021/10/31 08:59:20;;;;;;;7.70;4.70;;;;;;;14.92;40.80;96793.79;115718;1198;26250;-85
2021/10/31 09:01:51;;;;;;;5.30;3.80;;;;;;;14.92;41.34;96786.85;115565;1198;25384;-84
2021/10/31 09:04:21;;;;;;;7.10;4.20;;;;;;;15.04;41.16;96786.30;115624;1191;25019;-85
2021/10/31 09:06:52;;;;;;;6.50;3.90;;;;;;;15.06;41.19;96788.77;115460;1198;29063;-85
2021/10/31 09:09:24;;;;;;;;;;;;;;;15.14;41.43;96784.70;115658;1198;26221;-84
2021/10/31 09:11:55;;;;;;;6.30;4.10;;;;;;;15.23;41.33;96789.61;115617;1198;24996;-85
2021/10/31 09:14:28;;;;;;;6.30;4.00;;;;;;;15.31;41.18;96791.06;115594;1198;25231;-84
2021/10/31 09:16:59;;;;;;;8.10;4.40;;;;;;;15.33;40.80;96788.04;115651;1198;23989;-84
2021/10/31 09:19:30;;;;;;;6.40;3.60;;;;;;;15.28;40.93;96780.02;115592;1198;24157;-84
2021/10/31 09:22:02;;;;;;;7.20;4.10;;;;;;;15.33;41.08;96781.09;115613;1192;23975;-83
2021/10/31 09:24:32;;;;;;;5.80;4.30;;;;;;;15.40;41.00;96779.48;115601;1191;22939;-84
2021/10/31 09:27:04;;;;;;;6.70;4.10;;;;;;;15.50;41.16;96775.45;115569;1192;25950;-83
2021/10/31 09:29:35;;;;;;;6.00;3.90;;;;;;;15.60;41.27;96773.60;115597;1198;28661;-85
2021/10/31 09:32:07;;;;;;;6.10;4.30;;;;;;;15.60;40.88;96778.95;115618;1198;25739;-83
2021/10/31 09:34:38;;;;;;;7.20;4.00;;;;;;;15.54;41.00;96776.67;115563;1198;24451;-84
2021/10/31 09:37:09;;;;;;;7.10;4.10;;;;;;;15.54;40.89;96778.55;115633;1198;23132;-84
2021/10/31 09:39:40;;;;;;;6.60;3.90;;;;;;;15.44;40.73;96781.06;115697;1192;24549;-83
2021/10/31 09:42:12;;;;;;;;;;;;;;;15.39;40.66;96774.20;115664;1198;24698;-84
2021/10/31 09:44:49;;;;;;;6.20;3.90;;;;;;;15.44;40.86;96773.59;115519;1199;25361;-84
2021/10/31 09:47:24;;;;;;;5.00;3.80;;;;;;;15.57;41.21;96769.02;115596;1198;26370;-85
2021/10/31 09:49:56;;;;;;;6.10;3.60;;;;;;;15.69;40.89;96763.45;115648;1198;34965;-84
2021/10/31 09:52:29;;;;;;;5.40;3.50;;;;;;;15.70;40.85;96762.83;115559;1191;25533;-84
2021/10/31 09:55:00;;;;;;;8.40;4.30;;;;;;;15.71;40.71;96763.21;115215;1198;26875;-84
2021/10/31 09:57:31;;;;;;;6.50;4.20;;;;;;;15.79;40.82;96758.85;115546;1198;24869;-84
2021/10/31 10:00:03;;;;;;;5.60;3.90;;;;;;;15.88;40.65;96756.30;115612;1198;43050;-84
2021/10/31 10:02:48;;;;;;;5.00;3.40;;;;;;;15.95;40.71;96752.82;115603;1198;26266;-83
2021/10/31 10:05:24;;;;;;;8.60;4.20;;;;;;;16.07;40.22;96750.71;115446;1199;24123;-86
2021/10/31 10:08:09;;;;;;;6.00;3.90;;;;;;;16.17;40.26;96748.95;115580;1198;26840;-88
2021/10/31 10:10:46;;;;;;;7.50;4.00;;;;;;;16.21;40.18;96742.30;115629;1198;31166;-86
2021/10/31 10:13:22;;;;;;;5.40;3.90;;;;;;;16.27;39.80;96736.69;115637;1198;25496;-86
2021/10/31 10:16:12;;;;;;;7.50;3.80;;;;;;;16.35;39.83;96737.80;115626;1192;32695;-82
2021/10/31 10:18:43;;;;;;;6.40;3.90;;;;;;;16.42;39.66;96736.36;115671;1198;24029;-83
2021/10/31 10:21:23;;;;;;;6.10;3.70;;;;;;;16.52;39.66;96733.08;115602;1198;22862;-81
2021/10/31 10:23:56;;;;;;;6.00;4.00;;;;;;;16.58;39.50;96730.90;115626;1198;24524;-85
2021/10/31 10:26:33;;;;;;;5.10;3.70;;;;;;;16.63;39.33;96730.02;115642;1198;25187;-83
2021/10/31 10:29:13;;;;;;;4.80;3.30;;;;;;;16.66;39.41;96722.70;115599;1198;24064;-84
2021/10/31 10:31:47;;;;;;;6.00;4.10;;;;;;;16.64;39.30;96722.64;115591;1198;24007;-83
2021/10/31 10:34:30;;;;;;;6.00;3.90;;;;;;;16.56;39.33;96722.88;115511;1192;24495;-82
2021/10/31 10:37:06;;;;;;;7.00;3.70;;;;;;;16.54;39.22;96719.29;115616;1197;25109;-83
2021/10/31 10:39:38;;;;;;;7.30;4.10;;;;;;;16.54;39.23;96716.36;115648;1192;26003;-84
2021/10/31 10:42:10;;;;;;;4.20;3.10;;;;;;;16.60;39.15;96714.19;115704;1198;37891;-83
2021/10/31 10:44:42;;;;;;;6.00;3.90;;;;;;;16.63;39.17;96709.77;115583;1192;27927;-81
2021/10/31 10:47:19;;;;;;;7.30;4.20;;;;;;;16.70;39.27;96707.39;115651;1197;25497;-83
2021/10/31 10:49:51;;;;;;;6.50;3.90;;;;;;;16.76;39.10;96704.54;115599;1192;25398;-84
2021/10/31 10:52:29;;;;;;;5.80;3.50;;;;;;;16.74;39.40;96698.59;115469;1198;25515;-85
2021/10/31 10:55:12;;;;;;;6.30;3.60;;;;;;;16.73;39.15;96698.09;115649;1192;27872;-84
2021/10/31 10:57:49;;;;;;;5.50;3.60;;;;;;;16.73;39.07;96691.82;115466;1199;26518;-83
2021/10/31 11:00:22;;;;;;;4.40;3.60;;;;;;;16.77;39.27;96690.88;115627;1197;24039;-83
2021/10/31 11:03:02;;;;;;;6.30;3.70;;;;;;;16.91;38.81;96688.90;115638;1198;26087;-84
2021/10/31 11:05:35;;;;;;;7.00;3.60;;;;;;;16.94;38.79;96688.17;115428;1200;24901;-84
2021/10/31 11:08:11;;;;;;;6.60;4.00;;;;;;;17.03;38.38;96684.66;115654;1198;23689;-85
2021/10/31 11:10:48;;;;;;;5.90;3.30;;;;;;;17.11;38.34;96678.19;115571;1198;25958;-83
2021/10/31 11:13:19;;;;;;;4.60;3.40;;;;;;;17.21;38.54;96675.96;115608;1198;25312;-85
2021/10/31 11:15:50;;;;;;;5.50;3.50;;;;;;;17.29;38.30;96671.98;115590;1198;24929;-84
2021/10/31 11:18:21;;;;;;;4.80;3.50;;;;;;;17.38;38.30;96666.02;115642;1192;28979;-84
2021/10/31 11:20:52;;;;;;;5.90;3.70;;;;;;;17.47;38.10;96663.18;115644;1192;24572;-84
2021/10/31 11:23:24;;;;;;;5.00;3.20;;;;;;;17.54;38.04;96662.05;115634;1195;26009;-84
2021/10/31 11:26:02;;;;;;;6.30;3.40;;;;;;;17.60;37.45;96658.47;115571;1198;24933;-84
2021/10/31 11:28:34;;;;;;;6.70;3.50;;;;;;;17.65;37.39;96653.23;115517;1198;30714;-84
2021/10/31 11:31:05;;;;;;;5.70;3.70;;;;;;;17.68;37.01;96646.92;115610;1198;24538;-84
2021/10/31 11:33:36;;;;;;;5.00;3.30;;;;;;;17.70;37.27;96648.01;115637;1198;23636;-84
2021/10/31 11:36:08;;;;;;;6.00;3.20;;;;;;;17.69;37.06;96642.52;115671;1195;23647;-83
2021/10/31 11:38:39;;;;;;;5.50;3.20;;;;;;;17.71;37.15;96642.16;115723;1192;27993;-84
2021/10/31 11:41:11;;;;;;;5.10;2.90;;;;;;;17.77;37.24;96637.60;115541;1198;92424;-84
2021/10/31 11:43:53;;;;;;;4.80;2.70;;;;;;;17.83;37.27;96639.48;115362;1198;64042;-83
2021/10/31 11:46:39;;;;;;;5.40;3.30;;;;;;;17.88;37.36;96633.31;115546;1198;56235;-83
2021/10/31 11:49:12;;;;;;;6.90;3.00;;;;;;;17.94;36.98;96631.48;115627;1192;55017;-83
2021/10/31 11:51:47;;;;;;;4.60;3.20;;;;;;;18.02;36.82;96628.65;115546;1192;47199;-82
2021/10/31 11:54:20;;;;;;;6.00;2.90;;;;;;;18.09;36.74;96627.77;115375;1198;60009;-82